sensor_id;sensor_type;location;lat;lon;timestamp;pressure;altitude;pressure_sealevel;temperature;humidity
23574;BME280;11965;53.640;10.050;2023-08-21T00:01:38;102078.50;;;15.41;100.00
23574;BME280;11965;53.640;10.050;2023-08-21T00:04:04;102069.66;;;15.37;100.00
23574;BME280;11965;53.640;10.050;2023-08-21T00:06:31;102071.94;;;15.34;100.00
23574;BME280;11965;53.640;10.050;2023-08-21T00:08:59;102076.00;;;15.31;100.00
23574;BME280;11965;53.640;10.050;2023-08-21T00:11:28;102071.88;;;15.27;100.00
23574;BME280;11965;53.640;10.050;2023-08-21T00:13:55;102077.00;;;15.23;100.00
23574;BME280;11965;53.640;10.050;2023-08-21T00:16:21;102072.69;;;15.21;100.00
23574;BME280;11965;53.640;10.050;2023-08-21T00:18:48;102078.06;;;15.22;100.00
23574;BME280;11965;53.640;10.050;2023-08-21T00:21:15;102075.66;;;15.19;100.00
23574;BME280;11965;53.640;10.050;2023-08-21T00:23:42;102074.13;;;15.17;100.00
23574;BME280;11965;53.640;10.050;2023-08-21T00:26:08;102077.13;;;15.15;100.00
23574;BME280;11965;53.640;10.050;2023-08-21T00:28:37;102078.56;;;15.11;100.00
23574;BME280;11965;53.640;10.050;2023-08-21T00:31:05;102078.09;;;15.08;100.00
23574;BME280;11965;53.640;10.050;2023-08-21T00:33:32;102077.59;;;15.04;100.00
23574;BME280;11965;53.640;10.050;2023-08-21T00:36:00;102078.84;;;15.01;100.00
23574;BME280;11965;53.640;10.050;2023-08-21T00:38:27;102078.84;;;15.01;100.00
23574;BME280;11965;53.640;10.050;2023-08-21T00:40:54;102090.00;;;15.01;100.00
23574;BME280;11965;53.640;10.050;2023-08-21T00:43:21;102081.00;;;14.99;100.00
23574;BME280;11965;53.640;10.050;2023-08-21T00:45:50;102078.38;;;14.98;100.00
23574;BME280;11965;53.640;10.050;2023-08-21T00:48:17;102078.78;;;14.95;100.00
23574;BME280;11965;53.640;10.050;2023-08-21T00:50:45;102080.03;;;14.92;100.00
23574;BME280;11965;53.640;10.050;2023-08-21T00:53:12;102078.47;;;14.90;100.00
23574;BME280;11965;53.640;10.050;2023-08-21T00:55:40;102087.25;;;14.87;100.00
23574;BME280;11965;53.640;10.050;2023-08-21T00:58:09;102078.41;;;14.83;100.00
23574;BME280;11965;53.640;10.050;2023-08-21T01:00:37;102080.69;;;14.79;100.00
23574;BME280;11965;53.640;10.050;2023-08-21T01:03:07;102076.19;;;14.78;100.00
23574;BME280;11965;53.640;10.050;2023-08-21T01:05:35;102082.16;;;14.75;100.00
23574;BME280;11965;53.640;10.050;2023-08-21T01:08:03;102077.63;;;14.74;100.00
23574;BME280;11965;53.640;10.050;2023-08-21T01:10:42;102083.78;;;14.70;100.00
23574;BME280;11965;53.640;10.050;2023-08-21T01:13:22;102075.59;;;14.68;100.00
23574;BME280;11965;53.640;10.050;2023-08-21T01:15:51;102084.84;;;14.69;100.00
23574;BME280;11965;53.640;10.050;2023-08-21T01:18:22;102080.50;;;14.66;100.00
23574;BME280;11965;53.640;10.050;2023-08-21T01:20:52;102083.50;;;14.65;100.00
23574;BME280;11965;53.640;10.050;2023-08-21T01:23:30;102081.97;;;14.62;100.00
23574;BME280;11965;53.640;10.050;2023-08-21T01:25:58;102086.84;;;14.60;100.00
23574;BME280;11965;53.640;10.050;2023-08-21T01:28:25;102088.28;;;14.56;100.00
23574;BME280;11965;53.640;10.050;2023-08-21T01:30:59;102088.66;;;14.53;100.00
23574;BME280;11965;53.640;10.050;2023-08-21T01:33:30;102086.78;;;14.53;100.00
23574;BME280;11965;53.640;10.050;2023-08-21T01:36:03;102093.22;;;14.54;100.00
23574;BME280;11965;53.640;10.050;2023-08-21T01:38:33;102090.94;;;14.49;100.00
23574;BME280;11965;53.640;10.050;2023-08-21T01:41:01;102095.84;;;14.47;100.00
23574;BME280;11965;53.640;10.050;2023-08-21T01:43:28;102093.06;;;14.47;100.00
23574;BME280;11965;53.640;10.050;2023-08-21T01:45:55;102092.38;;;14.45;100.00
23574;BME280;11965;53.640;10.050;2023-08-21T01:48:22;102095.38;;;14.44;100.00
23574;BME280;11965;53.640;10.050;2023-08-21T01:50:49;102085.47;;;14.41;100.00
23574;BME280;11965;53.640;10.050;2023-08-21T01:53:16;102094.22;;;14.38;100.00
23574;BME280;11965;53.640;10.050;2023-08-21T01:55:45;102085.63;;;14.40;100.00
23574;BME280;11965;53.640;10.050;2023-08-21T01:58:11;102087.78;;;14.38;100.00
23574;BME280;11965;53.640;10.050;2023-08-21T02:00:38;102085.16;;;14.36;100.00
23574;BME280;11965;53.640;10.050;2023-08-21T02:03:05;102094.59;;;14.35;100.00
23574;BME280;11965;53.640;10.050;2023-08-21T02:05:37;102089.56;;;14.30;100.00
23574;BME280;11965;53.640;10.050;2023-08-21T02:08:05;102080.53;;;14.28;100.00
23574;BME280;11965;53.640;10.050;2023-08-21T02:10:32;102084.16;;;14.29;100.00
23574;BME280;11965;53.640;10.050;2023-08-21T02:13:00;102086.31;;;14.27;100.00
23574;BME280;11965;53.640;10.050;2023-08-21T02:15:27;102091.88;;;14.27;100.00
23574;BME280;11965;53.640;10.050;2023-08-21T02:17:54;102089.09;;;14.27;100.00
23574;BME280;11965;53.640;10.050;2023-08-21T02:20:21;102092.91;;;14.26;100.00
23574;BME280;11965;53.640;10.050;2023-08-21T02:22:48;102100.81;;;14.22;100.00
23574;BME280;11965;53.640;10.050;2023-08-21T02:25:15;102100.31;;;14.19;100.00
23574;BME280;11965;53.640;10.050;2023-08-21T02:27:42;102099.81;;;14.15;100.00
23574;BME280;11965;53.640;10.050;2023-08-21T02:30:11;102094.63;;;14.12;100.00
23574;BME280;11965;53.640;10.050;2023-08-21T02:32:38;102096.72;;;14.10;100.00
23574;BME280;11965;53.640;10.050;2023-08-21T02:35:06;102097.22;;;14.13;100.00
23574;BME280;11965;53.640;10.050;2023-08-21T02:37:33;102092.91;;;14.11;100.00
23574;BME280;11965;53.640;10.050;2023-08-21T02:40:06;102094.31;;;14.07;100.00
23574;BME280;11965;53.640;10.050;2023-08-21T02:42:35;102094.50;;;14.05;100.00
23574;BME280;11965;53.640;10.050;2023-08-21T02:45:02;102097.31;;;14.05;100.00
23574;BME280;11965;53.640;10.050;2023-08-21T02:47:36;102092.97;;;14.03;100.00
23574;BME280;11965;53.640;10.050;2023-08-21T02:50:03;102095.94;;;14.01;100.00
23574;BME280;11965;53.640;10.050;2023-08-21T02:52:31;102100.44;;;14.02;100.00
23574;BME280;11965;53.640;10.050;2023-08-21T02:54:58;102102.56;;;14.00;100.00
23574;BME280;11965;53.640;10.050;2023-08-21T02:57:26;102104.50;;;14.00;100.00
23574;BME280;11965;53.640;10.050;2023-08-21T02:59:53;102100.81;;;13.99;100.00
23574;BME280;11965;53.640;10.050;2023-08-21T03:02:21;102102.56;;;14.00;100.00
23574;BME280;11965;53.640;10.050;2023-08-21T03:04:49;102106.78;;;13.96;100.00
23574;BME280;11965;53.640;10.050;2023-08-21T03:07:17;102110.78;;;13.93;100.00
23574;BME280;11965;53.640;10.050;2023-08-21T03:09:45;102110.78;;;13.93;100.00
23574;BME280;11965;53.640;10.050;2023-08-21T03:12:12;102106.28;;;13.92;100.00
23574;BME280;11965;53.640;10.050;2023-08-21T03:14:39;102104.34;;;13.93;100.00
23574;BME280;11965;53.640;10.050;2023-08-21T03:17:06;102108.00;;;13.93;100.00
23574;BME280;11965;53.640;10.050;2023-08-21T03:19:33;102109.75;;;13.95;100.00
23574;BME280;11965;53.640;10.050;2023-08-21T03:22:03;102108.31;;;13.99;100.00
23574;BME280;11965;53.640;10.050;2023-08-21T03:24:31;102111.09;;;13.99;100.00
23574;BME280;11965;53.640;10.050;2023-08-21T03:26:58;102102.56;;;14.00;100.00
23574;BME280;11965;53.640;10.050;2023-08-21T03:29:25;102106.31;;;14.07;100.00
23574;BME280;11965;53.640;10.050;2023-08-21T03:31:53;102104.59;;;14.06;100.00
23574;BME280;11965;53.640;10.050;2023-08-21T03:34:20;102101.13;;;14.04;100.00
23574;BME280;11965;53.640;10.050;2023-08-21T03:36:50;102101.34;;;14.03;100.00
23574;BME280;11965;53.640;10.050;2023-08-21T03:39:20;102101.13;;;14.04;100.00
23574;BME280;11965;53.640;10.050;2023-08-21T03:41:47;102103.91;;;14.04;100.00
23574;BME280;11965;53.640;10.050;2023-08-21T03:44:15;102109.63;;;14.11;100.00
23574;BME280;11965;53.640;10.050;2023-08-21T03:46:42;102098.94;;;14.14;100.00
23574;BME280;11965;53.640;10.050;2023-08-21T03:49:09;102107.31;;;14.14;100.00
23574;BME280;11965;53.640;10.050;2023-08-21T03:51:36;102106.63;;;14.12;100.00
23574;BME280;11965;53.640;10.050;2023-08-21T03:54:04;102109.41;;;14.12;100.00
23574;BME280;11965;53.640;10.050;2023-08-21T03:56:33;102104.53;;;14.14;100.00
23574;BME280;11965;53.640;10.050;2023-08-21T03:58:59;102102.44;;;14.17;100.00
23574;BME280;11965;53.640;10.050;2023-08-21T04:01:27;102105.22;;;14.17;100.00
23574;BME280;11965;53.640;10.050;2023-08-21T04:03:54;102108.00;;;14.17;100.00
23574;BME280;11965;53.640;10.050;2023-08-21T04:06:21;102101.75;;;14.14;100.00
23574;BME280;11965;53.640;10.050;2023-08-21T04:08:48;102102.81;;;14.13;100.00
23574;BME280;11965;53.640;10.050;2023-08-21T04:11:15;102109.94;;;14.16;100.00
23574;BME280;11965;53.640;10.050;2023-08-21T04:13:44;102112.91;;;14.14;100.00
23574;BME280;11965;53.640;10.050;2023-08-21T04:16:11;102101.25;;;14.11;100.00
23574;BME280;11965;53.640;10.050;2023-08-21T04:18:40;102097.78;;;14.09;100.00
23574;BME280;11965;53.640;10.050;2023-08-21T04:21:07;102108.56;;;14.12;100.00
23574;BME280;11965;53.640;10.050;2023-08-21T04:23:34;102105.09;;;14.10;100.00
23574;BME280;11965;53.640;10.050;2023-08-21T04:26:01;102110.66;;;14.10;100.00
23574;BME280;11965;53.640;10.050;2023-08-21T04:28:29;102115.00;;;14.12;100.00
23574;BME280;11965;53.640;10.050;2023-08-21T04:30:58;102111.66;;;14.17;100.00
23574;BME280;11965;53.640;10.050;2023-08-21T04:33:27;102124.34;;;14.20;100.00
23574;BME280;11965;53.640;10.050;2023-08-21T04:35:54;102123.03;;;14.30;100.00
23574;BME280;11965;53.640;10.050;2023-08-21T04:38:21;102124.22;;;14.36;100.00
23574;BME280;11965;53.640;10.050;2023-08-21T04:40:48;102114.78;;;14.37;100.00
23574;BME280;11965;53.640;10.050;2023-08-21T04:43:14;102122.56;;;14.42;100.00
23574;BME280;11965;53.640;10.050;2023-08-21T04:45:47;102118.84;;;14.49;100.00
23574;BME280;11965;53.640;10.050;2023-08-21T04:48:15;102115.72;;;14.52;100.00
23574;BME280;11965;53.640;10.050;2023-08-21T04:50:46;102123.31;;;14.58;100.00
23574;BME280;11965;53.640;10.050;2023-08-21T04:53:13;102111.97;;;14.60;100.00
23574;BME280;11965;53.640;10.050;2023-08-21T04:55:41;102123.91;;;14.69;100.00
23574;BME280;11965;53.640;10.050;2023-08-21T04:58:09;102123.81;;;14.77;100.00
23574;BME280;11965;53.640;10.050;2023-08-21T05:00:36;102129.69;;;14.82;100.00
23574;BME280;11965;53.640;10.050;2023-08-21T05:03:06;102123.72;;;14.85;100.00
23574;BME280;11965;53.640;10.050;2023-08-21T05:05:36;102117.75;;;14.88;100.00
23574;BME280;11965;53.640;10.050;2023-08-21T05:08:03;102128.16;;;14.94;100.00
23574;BME280;11965;53.640;10.050;2023-08-21T05:10:31;102126.91;;;14.97;100.00
23574;BME280;11965;53.640;10.050;2023-08-21T05:12:58;102125.66;;;14.99;100.00
23574;BME280;11965;53.640;10.050;2023-08-21T05:15:25;102131.81;;;15.10;100.00
23574;BME280;11965;53.640;10.050;2023-08-21T05:17:54;102127.56;;;15.14;100.00
23574;BME280;11965;53.640;10.050;2023-08-21T05:20:22;102136.94;;;15.21;100.00
23574;BME280;11965;53.640;10.050;2023-08-21T05:22:50;102129.28;;;15.30;100.00
23574;BME280;11965;53.640;10.050;2023-08-21T05:25:18;102121.88;;;15.37;100.00
23574;BME280;11965;53.640;10.050;2023-08-21T05:27:45;102128.41;;;15.44;100.00
23574;BME280;11965;53.640;10.050;2023-08-21T05:30:12;102125.19;;;15.47;100.00
23574;BME280;11965;53.640;10.050;2023-08-21T05:32:40;102110.25;;;15.55;100.00
23574;BME280;11965;53.640;10.050;2023-08-21T05:35:08;102122.00;;;15.65;100.00
23574;BME280;11965;53.640;10.050;2023-08-21T05:37:35;102118.50;;;15.78;100.00
23574;BME280;11965;53.640;10.050;2023-08-21T05:40:04;102117.81;;;15.90;100.00
23574;BME280;11965;53.640;10.050;2023-08-21T05:42:34;102123.50;;;16.04;100.00
23574;BME280;11965;53.640;10.050;2023-08-21T05:45:01;102125.41;;;16.25;100.00
23574;BME280;11965;53.640;10.050;2023-08-21T05:47:30;102121.88;;;16.38;100.00
23574;BME280;11965;53.640;10.050;2023-08-21T05:49:57;102125.06;;;16.56;100.00
23574;BME280;11965;53.640;10.050;2023-08-21T05:52:24;102123.41;;;16.68;100.00
23574;BME280;11965;53.640;10.050;2023-08-21T05:54:50;102124.88;;;16.86;100.00
23574;BME280;11965;53.640;10.050;2023-08-21T05:57:19;102134.28;;;17.06;100.00
23574;BME280;11965;53.640;10.050;2023-08-21T05:59:46;102130.22;;;17.15;100.00
23574;BME280;11965;53.640;10.050;2023-08-21T06:02:14;102128.16;;;17.31;100.00
23574;BME280;11965;53.640;10.050;2023-08-21T06:04:42;102134.00;;;17.42;100.00
23574;BME280;11965;53.640;10.050;2023-08-21T06:07:09;102136.88;;;17.56;100.00
23574;BME280;11965;53.640;10.050;2023-08-21T06:09:37;102130.25;;;17.77;100.00
23574;BME280;11965;53.640;10.050;2023-08-21T06:12:04;102132.69;;;17.93;100.00
23574;BME280;11965;53.640;10.050;2023-08-21T06:14:33;102146.94;;;18.05;100.00
23574;BME280;11965;53.640;10.050;2023-08-21T06:17:03;102137.94;;;18.23;100.00
23574;BME280;11965;53.640;10.050;2023-08-21T06:19:31;102138.56;;;18.18;100.00
23574;BME280;11965;53.640;10.050;2023-08-21T06:21:58;102141.38;;;18.25;100.00
23574;BME280;11965;53.640;10.050;2023-08-21T06:24:25;102148.28;;;18.42;100.00
23574;BME280;11965;53.640;10.050;2023-08-21T06:26:56;102145.50;;;18.49;100.00
23574;BME280;11965;53.640;10.050;2023-08-21T06:29:24;102148.53;;;18.54;100.00
23574;BME280;11965;53.640;10.050;2023-08-21T06:31:52;102151.53;;;18.66;100.00
23574;BME280;11965;53.640;10.050;2023-08-21T06:34:20;102148.94;;;18.64;100.00
23574;BME280;11965;53.640;10.050;2023-08-21T06:36:47;102145.94;;;18.59;100.00
23574;BME280;11965;53.640;10.050;2023-08-21T06:39:14;102150.47;;;18.73;100.00
23574;BME280;11965;53.640;10.050;2023-08-21T06:41:40;102148.53;;;18.87;100.00
23574;BME280;11965;53.640;10.050;2023-08-21T06:44:12;102154.97;;;19.01;100.00
23574;BME280;11965;53.640;10.050;2023-08-21T06:46:39;102153.94;;;19.02;100.00
23574;BME280;11965;53.640;10.050;2023-08-21T06:49:07;102164.25;;;19.15;100.00
23574;BME280;11965;53.640;10.050;2023-08-21T06:51:34;102160.81;;;19.13;100.00
23574;BME280;11965;53.640;10.050;2023-08-21T06:54:01;102164.00;;;19.30;100.00
23574;BME280;11965;53.640;10.050;2023-08-21T06:56:28;102167.03;;;19.35;100.00
23574;BME280;11965;53.640;10.050;2023-08-21T06:58:54;102165.03;;;19.42;100.00
23574;BME280;11965;53.640;10.050;2023-08-21T07:01:21;102164.38;;;19.47;100.00
23574;BME280;11965;53.640;10.050;2023-08-21T07:03:48;102159.59;;;19.47;100.00
23574;BME280;11965;53.640;10.050;2023-08-21T07:06:16;102167.13;;;19.60;100.00
23574;BME280;11965;53.640;10.050;2023-08-21T07:08:43;102160.84;;;19.64;100.00
23574;BME280;11965;53.640;10.050;2023-08-21T07:11:10;102160.00;;;19.64;100.00
23574;BME280;11965;53.640;10.050;2023-08-21T07:13:38;102163.88;;;19.63;100.00
23574;BME280;11965;53.640;10.050;2023-08-21T07:16:05;102164.53;;;19.58;100.00
23574;BME280;11965;53.640;10.050;2023-08-21T07:18:32;102163.06;;;19.56;100.00
23574;BME280;11965;53.640;10.050;2023-08-21T07:21:00;102153.28;;;19.58;100.00
23574;BME280;11965;53.640;10.050;2023-08-21T07:23:28;102157.38;;;19.69;100.00
23574;BME280;11965;53.640;10.050;2023-08-21T07:25:55;102157.63;;;19.68;100.00
23574;BME280;11965;53.640;10.050;2023-08-21T07:28:22;102153.44;;;19.77;100.00
23574;BME280;11965;53.640;10.050;2023-08-21T07:30:54;102153.22;;;19.78;100.00
23574;BME280;11965;53.640;10.050;2023-08-21T07:33:21;102159.84;;;19.91;100.00
23574;BME280;11965;53.640;10.050;2023-08-21T07:35:56;102161.16;;;19.95;100.00
23574;BME280;11965;53.640;10.050;2023-08-21T07:38:23;102163.97;;;19.95;94.23
23574;BME280;11965;53.640;10.050;2023-08-21T07:41:01;102167.50;;;19.83;99.34
23574;BME280;11965;53.640;10.050;2023-08-21T07:43:28;102172.16;;;20.03;92.87
23574;BME280;11965;53.640;10.050;2023-08-21T07:45:54;102171.94;;;20.04;95.01
23574;BME280;11965;53.640;10.050;2023-08-21T07:48:21;102169.31;;;20.03;94.79
23574;BME280;11965;53.640;10.050;2023-08-21T07:50:51;102160.75;;;20.23;93.76
23574;BME280;11965;53.640;10.050;2023-08-21T07:53:18;102166.06;;;20.38;92.23
23574;BME280;11965;53.640;10.050;2023-08-21T07:55:45;102164.38;;;20.30;91.18
23574;BME280;11965;53.640;10.050;2023-08-21T07:58:13;102169.56;;;20.33;92.16
23574;BME280;11965;53.640;10.050;2023-08-21T08:00:40;102164.97;;;20.39;92.92
23574;BME280;11965;53.640;10.050;2023-08-21T08:03:08;102157.66;;;20.63;91.73
23574;BME280;11965;53.640;10.050;2023-08-21T08:05:35;102154.63;;;20.64;92.54
23574;BME280;11965;53.640;10.050;2023-08-21T08:08:02;102156.41;;;20.52;88.47
23574;BME280;11965;53.640;10.050;2023-08-21T08:10:29;102161.25;;;20.45;88.07
23574;BME280;11965;53.640;10.050;2023-08-21T08:12:56;102163.13;;;20.51;88.33
23574;BME280;11965;53.640;10.050;2023-08-21T08:15:24;102157.94;;;20.55;86.19
23574;BME280;11965;53.640;10.050;2023-08-21T08:17:54;102148.81;;;20.59;82.84
23574;BME280;11965;53.640;10.050;2023-08-21T08:20:21;102162.22;;;20.64;85.71
23574;BME280;11965;53.640;10.050;2023-08-21T08:22:48;102161.06;;;20.71;84.14
23574;BME280;11965;53.640;10.050;2023-08-21T08:25:15;102159.19;;;20.84;84.94
23574;BME280;11965;53.640;10.050;2023-08-21T08:27:43;102155.06;;;20.86;82.91
23574;BME280;11965;53.640;10.050;2023-08-21T08:30:11;102170.41;;;20.90;83.65
23574;BME280;11965;53.640;10.050;2023-08-21T08:32:40;102167.78;;;20.95;85.31
23574;BME280;11965;53.640;10.050;2023-08-21T08:35:10;102163.63;;;21.16;80.17
23574;BME280;11965;53.640;10.050;2023-08-21T08:37:37;102159.25;;;21.21;80.12
23574;BME280;11965;53.640;10.050;2023-08-21T08:40:05;102160.34;;;21.19;83.68
23574;BME280;11965;53.640;10.050;2023-08-21T08:42:34;102170.59;;;21.32;79.84
23574;BME280;11965;53.640;10.050;2023-08-21T08:45:03;102170.06;;;21.24;76.41
23574;BME280;11965;53.640;10.050;2023-08-21T08:47:31;102166.88;;;21.38;75.43
23574;BME280;11965;53.640;10.050;2023-08-21T08:50:50;102164.94;;;21.39;75.05
23574;BME280;11965;53.640;10.050;2023-08-21T08:53:18;102168.13;;;21.61;74.90
23574;BME280;11965;53.640;10.050;2023-08-21T08:55:46;102161.47;;;21.74;74.00
23574;BME280;11965;53.640;10.050;2023-08-21T08:58:12;102168.19;;;22.03;73.20
23574;BME280;11965;53.640;10.050;2023-08-21T09:00:39;102165.75;;;22.25;71.24
23574;BME280;11965;53.640;10.050;2023-08-21T09:03:06;102169.22;;;22.39;68.97
23574;BME280;11965;53.640;10.050;2023-08-21T09:05:34;102173.28;;;22.43;70.60
23574;BME280;11965;53.640;10.050;2023-08-21T09:08:10;102169.59;;;22.42;69.45
23574;BME280;11965;53.640;10.050;2023-08-21T09:10:38;102164.41;;;22.27;69.18
23574;BME280;11965;53.640;10.050;2023-08-21T09:13:11;102166.16;;;22.40;70.50
23574;BME280;11965;53.640;10.050;2023-08-21T09:15:38;102167.53;;;22.49;71.42
23574;BME280;11965;53.640;10.050;2023-08-21T09:18:08;102168.66;;;22.18;69.20
23574;BME280;11965;53.640;10.050;2023-08-21T09:38:14;102174.78;;;21.85;70.71
23574;BME280;11965;53.640;10.050;2023-08-21T09:40:41;102159.41;;;22.11;67.89
23574;BME280;11965;53.640;10.050;2023-08-21T09:43:09;102158.16;;;22.37;64.39
23574;BME280;11965;53.640;10.050;2023-08-21T09:45:37;102161.97;;;22.43;64.84
23574;BME280;11965;53.640;10.050;2023-08-21T09:48:05;102157.63;;;22.70;64.38
23574;BME280;11965;53.640;10.050;2023-08-21T09:50:32;102160.09;;;23.02;63.96
23574;BME280;11965;53.640;10.050;2023-08-21T09:53:01;102159.47;;;23.24;62.10
23574;BME280;11965;53.640;10.050;2023-08-21T09:55:31;102163.31;;;23.29;64.58
23574;BME280;11965;53.640;10.050;2023-08-21T09:58:00;102147.19;;;23.30;63.22
23574;BME280;11965;53.640;10.050;2023-08-21T10:00:31;102148.16;;;23.35;66.12
23574;BME280;11965;53.640;10.050;2023-08-21T10:03:01;102140.91;;;23.68;64.78
23574;BME280;11965;53.640;10.050;2023-08-21T10:05:29;102152.63;;;23.60;61.36
23574;BME280;11965;53.640;10.050;2023-08-21T10:08:00;102152.13;;;23.75;61.56
23574;BME280;11965;53.640;10.050;2023-08-21T10:10:32;102152.75;;;23.65;60.63
23574;BME280;11965;53.640;10.050;2023-08-21T10:12:59;102152.13;;;23.63;63.28
23574;BME280;11965;53.640;10.050;2023-08-21T10:15:28;102143.31;;;23.88;61.97
23574;BME280;11965;53.640;10.050;2023-08-21T10:17:56;102150.56;;;23.96;59.47
23574;BME280;11965;53.640;10.050;2023-08-21T10:20:25;102154.63;;;23.48;62.40
23574;BME280;11965;53.640;10.050;2023-08-21T10:22:53;102159.59;;;23.29;64.10
23574;BME280;11965;53.640;10.050;2023-08-21T10:25:22;102152.94;;;22.88;61.83
23574;BME280;11965;53.640;10.050;2023-08-21T10:27:54;102148.75;;;22.90;63.23
23574;BME280;11965;53.640;10.050;2023-08-21T10:30:23;102151.38;;;23.27;64.77
23574;BME280;11965;53.640;10.050;2023-08-21T10:32:51;102145.94;;;23.37;62.39
23574;BME280;11965;53.640;10.050;2023-08-21T10:35:20;102152.13;;;23.63;61.19
23574;BME280;11965;53.640;10.050;2023-08-21T10:38:08;102151.13;;;23.81;61.87
23574;BME280;11965;53.640;10.050;2023-08-21T10:40:36;102158.47;;;23.42;60.30
23574;BME280;11965;53.640;10.050;2023-08-21T10:46:10;102155.06;;;23.80;62.42
23574;BME280;11965;53.640;10.050;2023-08-21T10:48:37;102154.63;;;24.00;58.78
23574;BME280;11965;53.640;10.050;2023-08-21T10:51:05;102158.38;;;23.89;58.19
23574;BME280;11965;53.640;10.050;2023-08-21T10:53:33;102153.09;;;23.80;59.42
23574;BME280;11965;53.640;10.050;2023-08-21T10:56:04;102154.56;;;23.83;55.42
23574;BME280;11965;53.640;10.050;2023-08-21T10:58:38;102159.59;;;23.41;55.62
23574;BME280;11965;53.640;10.050;2023-08-21T11:01:05;102162.91;;;23.37;56.86
23574;BME280;11965;53.640;10.050;2023-08-21T11:03:32;102159.44;;;23.47;58.02
23574;BME280;11965;53.640;10.050;2023-08-21T11:06:03;102153.44;;;23.32;59.06
23574;BME280;11965;53.640;10.050;2023-08-21T11:08:31;102153.84;;;23.12;58.44
23574;BME280;11965;53.640;10.050;2023-08-21T11:10:59;102147.25;;;23.47;59.68
23574;BME280;11965;53.640;10.050;2023-08-21T11:13:26;102143.69;;;23.40;59.16
23574;BME280;11965;53.640;10.050;2023-08-21T11:16:02;102153.88;;;23.52;56.32
23574;BME280;11965;53.640;10.050;2023-08-21T11:18:30;102143.91;;;23.73;56.16
23574;BME280;11965;53.640;10.050;2023-08-21T11:21:08;102145.50;;;23.98;58.64
23574;BME280;11965;53.640;10.050;2023-08-21T11:23:37;102144.50;;;23.75;52.04
23574;BME280;11965;53.640;10.050;2023-08-21T11:26:05;102147.53;;;23.86;55.28
23574;BME280;11965;53.640;10.050;2023-08-21T11:28:33;102149.97;;;23.94;52.70
23574;BME280;11965;53.640;10.050;2023-08-21T11:31:01;102145.50;;;23.98;53.82
23574;BME280;11965;53.640;10.050;2023-08-21T11:33:28;102142.78;;;24.03;52.47
23574;BME280;11965;53.640;10.050;2023-08-21T11:35:55;102142.69;;;23.98;53.40
23574;BME280;11965;53.640;10.050;2023-08-21T11:38:26;102151.91;;;24.05;50.66
23574;BME280;11965;53.640;10.050;2023-08-21T11:40:54;102154.31;;;24.13;52.71
23574;BME280;11965;53.640;10.050;2023-08-21T11:43:33;102152.13;;;23.75;55.75
23574;BME280;11965;53.640;10.050;2023-08-21T11:46:03;102142.63;;;23.81;55.79
23574;BME280;11965;53.640;10.050;2023-08-21T11:48:30;102147.94;;;24.06;53.94
23574;BME280;11965;53.640;10.050;2023-08-21T11:50:57;102145.81;;;24.13;53.70
23574;BME280;11965;53.640;10.050;2023-08-21T11:53:31;102145.53;;;24.15;53.27
23574;BME280;11965;53.640;10.050;2023-08-21T11:55:59;102138.63;;;24.39;52.81
23574;BME280;11965;53.640;10.050;2023-08-21T11:58:26;102136.63;;;24.23;50.91
23574;BME280;11965;53.640;10.050;2023-08-21T12:00:54;102137.19;;;24.37;51.76
23574;BME280;11965;53.640;10.050;2023-08-21T12:03:22;102135.31;;;24.42;52.01
23574;BME280;11965;53.640;10.050;2023-08-21T12:05:49;102135.97;;;24.33;50.91
23574;BME280;11965;53.640;10.050;2023-08-21T12:08:15;102133.31;;;24.26;53.01
23574;BME280;11965;53.640;10.050;2023-08-21T12:10:42;102143.31;;;23.88;49.90
23574;BME280;11965;53.640;10.050;2023-08-21T12:13:09;102148.28;;;24.10;50.69
23574;BME280;11965;53.640;10.050;2023-08-21T12:15:36;102145.09;;;24.06;50.03
23574;BME280;11965;53.640;10.050;2023-08-21T12:18:03;102145.53;;;24.15;52.11
23574;BME280;11965;53.640;10.050;2023-08-21T12:20:32;102145.75;;;24.25;52.36
23574;BME280;11965;53.640;10.050;2023-08-21T12:22:59;102137.19;;;24.37;47.76
23574;BME280;11965;53.640;10.050;2023-08-21T12:25:26;102131.44;;;24.32;52.52
23574;BME280;11965;53.640;10.050;2023-08-21T12:27:53;102146.88;;;24.24;49.43
23574;BME280;11965;53.640;10.050;2023-08-21T12:30:19;102135.00;;;24.10;48.03
23574;BME280;11965;53.640;10.050;2023-08-21T12:32:46;102139.31;;;24.13;48.89
23574;BME280;11965;53.640;10.050;2023-08-21T12:35:13;102141.13;;;24.36;50.04
23574;BME280;11965;53.640;10.050;2023-08-21T12:37:41;102139.22;;;24.41;48.12
23574;BME280;11965;53.640;10.050;2023-08-21T12:40:09;102136.66;;;24.40;47.00
23574;BME280;11965;53.640;10.050;2023-08-21T12:42:35;102133.56;;;24.41;46.43
23574;BME280;11965;53.640;10.050;2023-08-21T12:45:03;102132.47;;;24.42;47.58
23574;BME280;11965;53.640;10.050;2023-08-21T12:47:30;102139.78;;;24.55;46.57
23574;BME280;11965;53.640;10.050;2023-08-21T12:49:58;102131.00;;;24.40;48.00
23574;BME280;11965;53.640;10.050;2023-08-21T12:52:25;102135.75;;;24.51;45.77
23574;BME280;11965;53.640;10.050;2023-08-21T12:54:53;102127.75;;;24.65;43.67
23574;BME280;11965;53.640;10.050;2023-08-21T12:57:20;102132.22;;;24.78;45.28
23574;BME280;11965;53.640;10.050;2023-08-21T12:59:47;102127.50;;;24.83;43.34